Time;durP1;ratioP1;P1;durP2;ratioP2;P2;SDS_P1;SDS_P2;PMS_P1;PMS_P2;Temp;Humidity;BMP_temperature;BMP_pressure;BME280_temperature;BME280_humidity;BME280_pressure;Samples;Min_cycle;Max_cycle;Signal;HPM_P1;HPM_P2
2022/10/13 00:01:56;;;;;;;12.20;5.72;;;;;;;;;;5054498;28;20202;-80
2022/10/13 00:04:22;;;;;;;9.07;6.20;;;;;;;;;;5054399;28;20032;-80
2022/10/13 00:06:48;;;;;;;10.70;6.63;;;;;;;;;;5055162;28;20373;-80
2022/10/13 00:09:14;;;;;;;12.63;6.38;;;;;;;;;;5055717;28;20487;-80
2022/10/13 00:11:40;;;;;;;11.07;6.70;;;;;;;;;;5053753;28;20139;-81
2022/10/13 00:14:06;;;;;;;12.32;6.43;;;;;;;;;;5055417;28;20092;-82
2022/10/13 00:16:32;;;;;;;9.82;6.25;;;;;;;;;;5038880;28;20052;-83
2022/10/13 00:18:58;;;;;;;11.20;6.28;;;;;;;;;;5058304;28;20103;-82
2022/10/13 00:21:26;;;;;;;11.77;7.45;;;;;;;;;;5057398;28;20444;-82
2022/10/13 00:23:52;;;;;;;9.63;6.05;;;;;;;;;;5039651;28;20021;-82
2022/10/13 00:26:19;;;;;;;10.57;6.10;;;;;;;;;;5057712;28;20112;-82
2022/10/13 00:28:45;;;;;;;12.02;6.72;;;;;;;;;;5056969;28;20032;-82
2022/10/13 00:31:37;;;;;;;10.93;6.28;;;;;;;;;;5057030;28;20070;-82
2022/10/13 00:34:03;;;;;;;11.37;6.73;;;;;;;;;;5051172;28;20037;-82
2022/10/13 00:36:30;;;;;;;10.45;6.82;;;;;;;;;;5055980;28;20040;-82
2022/10/13 00:38:56;;;;;;;11.20;6.95;;;;;;;;;;5038453;28;20033;-82
2022/10/13 00:41:22;;;;;;;11.90;6.55;;;;;;;;;;5055424;28;20055;-82
2022/10/13 00:43:48;;;;;;;11.10;6.93;;;;;;;;;;5055754;28;20493;-82
2022/10/13 00:46:15;;;;;;;9.63;6.05;;;;;;;;;;5056129;28;20060;-82
2022/10/13 00:48:42;;;;;;;10.85;7.60;;;;;;;;;;5038702;28;20078;-83
2022/10/13 00:51:09;;;;;;;11.73;6.88;;;;;;;;;;5056625;28;20107;-82
2022/10/13 00:53:37;;;;;;;10.80;6.35;;;;;;;;;;5038503;28;20021;-81
2022/10/13 00:56:04;;;;;;;10.45;7.13;;;;;;;;;;5055008;28;20062;-82
2022/10/13 00:58:31;;;;;;;14.07;7.55;;;;;;;;;;5056728;28;20502;-80
2022/10/13 01:00:58;;;;;;;10.45;6.75;;;;;;;;;;5055753;28;20025;-80
2022/10/13 01:03:25;;;;;;;11.77;7.13;;;;;;;;;;5054549;28;20049;-82
2022/10/13 01:05:52;;;;;;;9.95;6.35;;;;;;;;;;5055105;28;20033;-82
2022/10/13 01:08:19;;;;;;;11.60;7.03;;;;;;;;;;5056687;28;20107;-83
2022/10/13 01:10:54;;;;;;;13.07;6.85;;;;;;;;;;5038167;28;20025;-82
2022/10/13 01:13:34;;;;;;;10.25;6.90;;;;;;;;;;5054782;28;20017;-82
2022/10/13 01:16:00;;;;;;;15.00;8.55;;;;;;;;;;5055410;28;20032;-81
2022/10/13 01:18:49;;;;;;;11.35;7.00;;;;;;;;;;5054135;28;20036;-82
2022/10/13 01:21:21;;;;;;;11.90;6.43;;;;;;;;;;5033760;28;20029;-82
2022/10/13 01:23:53;;;;;;;13.87;7.27;;;;;;;;;;5038678;28;20026;-82
2022/10/13 01:26:32;;;;;;;11.05;6.90;;;;;;;;;;5037138;28;20276;-82
2022/10/13 01:29:01;;;;;;;12.75;7.32;;;;;;;;;;5054577;28;20267;-82
2022/10/13 01:31:48;;;;;;;12.73;7.03;;;;;;;;;;5053889;28;20029;-82
2022/10/13 01:34:14;;;;;;;12.40;7.53;;;;;;;;;;5055792;28;20044;-82
2022/10/13 01:36:43;;;;;;;11.65;6.90;;;;;;;;;;5053848;28;20029;-80
2022/10/13 01:39:18;;;;;;;11.57;6.90;;;;;;;;;;5054048;28;20053;-83
2022/10/13 01:41:46;;;;;;;12.90;7.57;;;;;;;;;;5062030;28;20112;-81
2022/10/13 01:44:20;;;;;;;12.95;7.57;;;;;;;;;;5070928;28;20036;-82
2022/10/13 01:46:48;;;;;;;13.05;8.13;;;;;;;;;;5070373;28;20036;-81
2022/10/13 01:49:16;;;;;;;13.35;7.57;;;;;;;;;;5069379;28;20040;-82
2022/10/13 01:51:42;;;;;;;12.27;7.65;;;;;;;;;;5069304;28;20075;-81
2022/10/13 01:54:08;;;;;;;13.60;7.45;;;;;;;;;;5051603;28;20035;-82
2022/10/13 01:56:34;;;;;;;12.23;7.95;;;;;;;;;;5069570;28;20017;-81
2022/10/13 01:59:02;;;;;;;14.27;8.40;;;;;;;;;;5060878;28;20032;-81
2022/10/13 02:01:32;;;;;;;11.90;7.68;;;;;;;;;;5057543;28;20025;-82
2022/10/13 02:04:10;;;;;;;13.05;7.40;;;;;;;;;;5058278;28;20035;-82
2022/10/13 02:06:36;;;;;;;14.10;8.63;;;;;;;;;;5059215;28;20495;-82
2022/10/13 02:09:17;;;;;;;12.77;7.80;;;;;;;;;;5057588;28;20071;-82
2022/10/13 02:11:48;;;;;;;11.93;7.57;;;;;;;;;;5057053;28;20025;-82
2022/10/13 02:14:25;;;;;;;11.88;8.05;;;;;;;;;;5055682;28;20024;-82
2022/10/13 02:16:52;;;;;;;11.68;7.57;;;;;;;;;;5055479;28;20025;-82
2022/10/13 02:19:19;;;;;;;12.18;7.75;;;;;;;;;;5054965;28;20035;-82
2022/10/13 02:21:46;;;;;;;12.23;8.25;;;;;;;;;;5054968;28;20033;-82
2022/10/13 02:24:12;;;;;;;12.77;7.90;;;;;;;;;;5037474;28;20025;-82
2022/10/13 02:26:39;;;;;;;13.48;8.48;;;;;;;;;;5055500;28;20032;-82
2022/10/13 02:29:12;;;;;;;11.38;7.43;;;;;;;;;;5037607;28;20395;-81
2022/10/13 02:31:38;;;;;;;11.60;8.43;;;;;;;;;;5056634;28;20029;-80
2022/10/13 02:34:04;;;;;;;13.20;8.05;;;;;;;;;;5057058;28;20101;-82
2022/10/13 02:36:31;;;;;;;13.45;8.05;;;;;;;;;;5054786;28;20036;-82
2022/10/13 02:38:57;;;;;;;12.85;8.50;;;;;;;;;;5037674;28;20055;-82
2022/10/13 02:41:23;;;;;;;13.55;8.45;;;;;;;;;;5056325;28;20029;-82
2022/10/13 02:43:49;;;;;;;13.10;9.07;;;;;;;;;;5051514;28;20029;-83
2022/10/13 02:46:15;;;;;;;14.68;9.18;;;;;;;;;;5054343;28;20037;-82
2022/10/13 02:48:41;;;;;;;14.60;9.27;;;;;;;;;;5053118;28;20487;-82
2022/10/13 02:51:07;;;;;;;14.98;8.82;;;;;;;;;;5055291;28;20059;-82
2022/10/13 02:53:33;;;;;;;15.23;8.75;;;;;;;;;;5054675;28;20029;-82
2022/10/13 02:55:59;;;;;;;13.07;8.88;;;;;;;;;;5054745;28;20111;-82
2022/10/13 02:58:25;;;;;;;12.90;8.63;;;;;;;;;;5053725;28;20029;-81
2022/10/13 03:00:51;;;;;;;13.05;8.77;;;;;;;;;;5053767;28;20017;-82
2022/10/13 03:03:17;;;;;;;13.52;8.60;;;;;;;;;;5052314;28;20495;-82
2022/10/13 03:05:44;;;;;;;13.45;8.98;;;;;;;;;;5053076;28;20025;-82
2022/10/13 03:08:10;;;;;;;12.70;8.43;;;;;;;;;;5054041;28;20479;-82
2022/10/13 03:10:36;;;;;;;14.13;9.10;;;;;;;;;;5053695;28;20029;-80
2022/10/13 03:13:02;;;;;;;14.68;9.27;;;;;;;;;;5038497;28;20032;-81
2022/10/13 03:15:28;;;;;;;18.38;9.57;;;;;;;;;;5054465;28;20096;-82
2022/10/13 03:17:54;;;;;;;12.60;8.57;;;;;;;;;;5054263;28;20076;-82
2022/10/13 03:20:20;;;;;;;15.80;9.50;;;;;;;;;;5054598;28;20025;-82
2022/10/13 03:22:46;;;;;;;13.63;9.10;;;;;;;;;;5053978;28;20025;-81
2022/10/13 03:25:12;;;;;;;13.88;9.75;;;;;;;;;;5054678;28;20032;-82
2022/10/13 03:27:38;;;;;;;14.02;8.43;;;;;;;;;;5038014;28;20025;-82
2022/10/13 03:30:04;;;;;;;12.30;8.48;;;;;;;;;;5046509;28;20032;-82
2022/10/13 03:32:30;;;;;;;14.32;8.70;;;;;;;;;;5060044;28;20033;-83
2022/10/13 03:34:56;;;;;;;14.30;8.48;;;;;;;;;;5058857;28;20032;-83
2022/10/13 03:37:22;;;;;;;11.57;7.85;;;;;;;;;;5057872;28;20040;-81
2022/10/13 03:39:48;;;;;;;13.77;8.63;;;;;;;;;;5058148;28;20051;-81
2022/10/13 03:42:14;;;;;;;12.48;8.93;;;;;;;;;;5041826;28;20040;-82
2022/10/13 03:44:40;;;;;;;17.17;9.60;;;;;;;;;;5057828;28;20025;-82
2022/10/13 03:47:06;;;;;;;15.18;8.70;;;;;;;;;;5058264;28;20482;-81
2022/10/13 03:49:32;;;;;;;15.30;8.75;;;;;;;;;;5038975;28;20522;-80
2022/10/13 03:51:58;;;;;;;16.17;8.95;;;;;;;;;;5056171;28;20060;-80
2022/10/13 03:54:24;;;;;;;16.42;10.65;;;;;;;;;;5059539;28;20503;-82
2022/10/13 03:56:50;;;;;;;15.65;10.57;;;;;;;;;;5057657;28;20028;-82
2022/10/13 03:59:17;;;;;;;15.13;9.60;;;;;;;;;;5063366;28;21527;-82
2022/10/13 04:01:43;;;;;;;14.90;9.68;;;;;;;;;;5061504;28;20047;-83
2022/10/13 04:04:10;;;;;;;16.52;9.43;;;;;;;;;;5046791;28;20056;-81
2022/10/13 04:06:36;;;;;;;15.15;9.32;;;;;;;;;;5061387;28;20036;-81
2022/10/13 04:09:02;;;;;;;15.00;9.50;;;;;;;;;;5045316;28;20029;-82
2022/10/13 04:11:28;;;;;;;14.23;9.07;;;;;;;;;;5060242;28;20017;-82
2022/10/13 04:13:58;;;;;;;15.48;9.15;;;;;;;;;;5062318;28;20036;-82
2022/10/13 04:16:25;;;;;;;14.48;8.85;;;;;;;;;;5045661;28;20028;-82
2022/10/13 04:19:01;;;;;;;13.57;8.07;;;;;;;;;;5045616;28;20438;-82
2022/10/13 04:21:28;;;;;;;14.45;8.45;;;;;;;;;;5063204;28;20029;-82
2022/10/13 04:23:56;;;;;;;14.50;8.57;;;;;;;;;;5064483;28;20021;-82
2022/10/13 04:26:22;;;;;;;15.13;9.30;;;;;;;;;;5067217;28;20029;-82
2022/10/13 04:28:49;;;;;;;13.88;8.40;;;;;;;;;;5066946;28;20079;-82
2022/10/13 04:31:15;;;;;;;14.07;8.82;;;;;;;;;;5040767;28;20021;-80
2022/10/13 04:33:43;;;;;;;13.30;8.55;;;;;;;;;;5055614;28;20558;-81
2022/10/13 04:36:10;;;;;;;15.05;8.77;;;;;;;;;;5062008;28;20025;-81
2022/10/13 04:38:36;;;;;;;13.07;8.52;;;;;;;;;;5061271;28;20053;-80
2022/10/13 04:41:05;;;;;;;13.30;8.43;;;;;;;;;;5064375;28;20040;-81
2022/10/13 04:43:32;;;;;;;14.38;8.65;;;;;;;;;;5062362;28;20116;-81
2022/10/13 04:46:06;;;;;;;14.40;9.20;;;;;;;;;;5059219;28;20025;-82
2022/10/13 04:48:32;;;;;;;14.13;8.70;;;;;;;;;;5055076;28;20017;-81
2022/10/13 04:51:18;;;;;;;14.05;8.98;;;;;;;;;;5060873;28;20031;-81
2022/10/13 04:53:44;;;;;;;13.55;9.32;;;;;;;;;;5060333;28;20028;-82
2022/10/13 04:56:11;;;;;;;16.35;10.55;;;;;;;;;;5043265;28;20096;-82
2022/10/13 04:58:38;;;;;;;18.88;10.00;;;;;;;;;;5061624;28;20029;-82
2022/10/13 05:01:05;;;;;;;16.60;9.73;;;;;;;;;;5056210;28;20121;-82
2022/10/13 05:03:32;;;;;;;20.40;10.60;;;;;;;;;;5055703;28;20394;-82
2022/10/13 05:05:58;;;;;;;14.00;9.85;;;;;;;;;;5058270;28;20033;-81
2022/10/13 05:08:24;;;;;;;15.23;9.30;;;;;;;;;;5059688;28;20025;-82
2022/10/13 05:10:57;;;;;;;17.45;10.23;;;;;;;;;;5058906;28;20024;-81
2022/10/13 05:13:23;;;;;;;17.40;10.93;;;;;;;;;;5058323;28;20415;-81
2022/10/13 05:15:49;;;;;;;18.85;10.18;;;;;;;;;;5057599;28;20041;-81
2022/10/13 05:18:16;;;;;;;16.63;10.23;;;;;;;;;;5040413;28;20028;-81
2022/10/13 05:20:42;;;;;;;15.55;9.95;;;;;;;;;;5057188;28;20036;-81
2022/10/13 05:23:08;;;;;;;17.92;10.48;;;;;;;;;;5059127;28;20029;-81
2022/10/13 05:25:36;;;;;;;16.00;10.23;;;;;;;;;;5058780;28;20036;-81
2022/10/13 05:28:03;;;;;;;14.45;9.38;;;;;;;;;;5058362;28;20071;-81
2022/10/13 05:30:29;;;;;;;14.43;9.30;;;;;;;;;;5056696;28;20017;-81
2022/10/13 05:32:56;;;;;;;18.85;10.23;;;;;;;;;;5059673;28;20557;-81
2022/10/13 05:35:23;;;;;;;17.42;9.13;;;;;;;;;;5040703;28;20078;-81
2022/10/13 05:37:50;;;;;;;15.93;10.30;;;;;;;;;;5051685;28;20040;-81
2022/10/13 05:40:16;;;;;;;18.58;10.20;;;;;;;;;;5059088;28;20052;-81
2022/10/13 05:42:41;;;;;;;18.52;10.30;;;;;;;;;;5058298;28;20025;-81
2022/10/13 05:45:08;;;;;;;18.65;10.68;;;;;;;;;;5039727;28;20032;-82
2022/10/13 05:47:35;;;;;;;14.23;9.75;;;;;;;;;;5039378;28;20029;-82
2022/10/13 05:50:01;;;;;;;17.45;9.70;;;;;;;;;;5057584;28;20040;-82
2022/10/13 05:52:28;;;;;;;17.48;10.52;;;;;;;;;;5057361;28;20533;-82
2022/10/13 05:54:56;;;;;;;18.95;10.80;;;;;;;;;;5036932;28;20112;-81
2022/10/13 05:57:24;;;;;;;16.52;9.90;;;;;;;;;;5050369;28;20487;-81
2022/10/13 06:00:07;;;;;;;18.48;10.02;;;;;;;;;;5056763;28;20084;-82
2022/10/13 06:02:39;;;;;;;15.57;10.02;;;;;;;;;;5056030;28;20041;-83
2022/10/13 06:05:07;;;;;;;14.13;9.30;;;;;;;;;;5057927;28;20021;-83
2022/10/13 06:07:33;;;;;;;13.80;9.43;;;;;;;;;;5056686;28;20025;-83
2022/10/13 06:10:00;;;;;;;18.10;10.07;;;;;;;;;;5055111;28;20036;-81
2022/10/13 06:12:26;;;;;;;16.30;10.18;;;;;;;;;;5057243;28;20373;-82
2022/10/13 06:14:53;;;;;;;17.20;10.40;;;;;;;;;;5056843;28;20025;-81
2022/10/13 06:17:19;;;;;;;14.65;9.02;;;;;;;;;;5037877;28;20108;-81
2022/10/13 06:19:45;;;;;;;16.02;10.15;;;;;;;;;;5053223;28;20120;-81
2022/10/13 06:22:11;;;;;;;14.65;9.23;;;;;;;;;;5052918;28;20021;-81
2022/10/13 06:24:37;;;;;;;15.50;9.43;;;;;;;;;;5036658;28;20060;-82
2022/10/13 06:27:04;;;;;;;14.95;9.15;;;;;;;;;;5055300;28;20100;-81
2022/10/13 06:29:32;;;;;;;17.60;9.75;;;;;;;;;;5053817;28;20383;-82
2022/10/13 06:31:58;;;;;;;17.08;9.98;;;;;;;;;;5037088;28;20032;-82
2022/10/13 06:34:24;;;;;;;15.93;9.98;;;;;;;;;;5054734;28;20028;-82
2022/10/13 06:36:50;;;;;;;15.65;8.93;;;;;;;;;;5054289;28;20029;-83
2022/10/13 06:39:16;;;;;;;14.10;9.55;;;;;;;;;;5057657;28;20049;-83
2022/10/13 06:41:42;;;;;;;14.82;9.35;;;;;;;;;;5058087;28;20029;-83
2022/10/13 06:44:08;;;;;;;20.35;10.27;;;;;;;;;;5039124;28;20052;-82
2022/10/13 06:46:34;;;;;;;16.73;9.43;;;;;;;;;;5055272;28;20032;-82
2022/10/13 06:49:00;;;;;;;16.80;10.15;;;;;;;;;;5037082;28;20028;-82
2022/10/13 06:51:26;;;;;;;16.58;10.55;;;;;;;;;;5054240;28;20033;-82
2022/10/13 06:53:55;;;;;;;17.42;10.45;;;;;;;;;;5055335;28;20025;-82
2022/10/13 06:56:22;;;;;;;21.08;10.77;;;;;;;;;;5036916;28;20033;-82
2022/10/13 06:58:48;;;;;;;17.23;10.77;;;;;;;;;;5054559;28;20024;-82
2022/10/13 07:01:14;;;;;;;18.48;11.07;;;;;;;;;;5048499;28;20040;-81
2022/10/13 07:03:40;;;;;;;17.80;11.02;;;;;;;;;;5041851;28;20457;-81
2022/10/13 07:06:06;;;;;;;18.77;10.77;;;;;;;;;;5048580;28;20038;-81
2022/10/13 07:08:33;;;;;;;17.67;11.32;;;;;;;;;;5060189;28;20337;-82
2022/10/13 07:11:05;;;;;;;16.45;10.10;;;;;;;;;;5059029;28;20060;-83
2022/10/13 07:13:31;;;;;;;15.27;9.57;;;;;;;;;;5061119;28;20024;-83
2022/10/13 07:15:57;;;;;;;16.88;10.38;;;;;;;;;;5060856;28;20033;-83
2022/10/13 07:18:23;;;;;;;17.02;9.80;;;;;;;;;;5059989;28;20395;-83
2022/10/13 07:20:49;;;;;;;21.02;9.85;;;;;;;;;;5058705;28;20098;-83
2022/10/13 07:23:15;;;;;;;17.60;9.60;;;;;;;;;;5059849;28;20020;-83
2022/10/13 07:25:42;;;;;;;18.20;10.15;;;;;;;;;;5060268;28;20033;-83
2022/10/13 07:28:08;;;;;;;14.35;9.85;;;;;;;;;;5041204;28;20328;-83
2022/10/13 07:30:34;;;;;;;14.32;8.98;;;;;;;;;;5059081;28;20039;-82
2022/10/13 07:33:00;;;;;;;18.65;9.90;;;;;;;;;;5059327;28;20024;-83
2022/10/13 07:35:26;;;;;;;18.52;9.82;;;;;;;;;;5059201;28;20021;-83
2022/10/13 07:37:52;;;;;;;15.07;8.90;;;;;;;;;;5057977;28;20081;-81
2022/10/13 07:40:19;;;;;;;14.18;9.52;;;;;;;;;;5058140;28;20037;-83
2022/10/13 07:42:44;;;;;;;17.95;9.27;;;;;;;;;;5041678;28;20520;-82
2022/10/13 07:45:11;;;;;;;16.60;9.38;;;;;;;;;;5059714;28;20025;-82
2022/10/13 07:47:37;;;;;;;18.17;10.45;;;;;;;;;;5059277;28;20511;-82
2022/10/13 07:50:03;;;;;;;17.45;9.75;;;;;;;;;;5059440;28;20033;-83
2022/10/13 07:52:29;;;;;;;14.57;9.50;;;;;;;;;;5059597;28;20017;-83
2022/10/13 07:54:55;;;;;;;18.98;10.50;;;;;;;;;;5057359;28;20059;-82
2022/10/13 07:57:26;;;;;;;18.13;11.52;;;;;;;;;;5039020;28;20083;-82
2022/10/13 07:59:52;;;;;;;16.95;10.35;;;;;;;;;;5056680;28;20102;-82
2022/10/13 08:02:18;;;;;;;16.48;10.10;;;;;;;;;;5038465;28;20029;-82
2022/10/13 08:04:44;;;;;;;19.60;10.32;;;;;;;;;;5038229;28;20024;-82
2022/10/13 08:07:10;;;;;;;19.25;10.40;;;;;;;;;;5055709;28;20056;-82
2022/10/13 08:09:36;;;;;;;15.65;10.00;;;;;;;;;;5057743;28;20464;-83
2022/10/13 08:12:03;;;;;;;17.30;10.77;;;;;;;;;;5055714;28;20021;-82
2022/10/13 08:14:29;;;;;;;19.45;10.43;;;;;;;;;;5036727;28;20116;-83
2022/10/13 08:16:57;;;;;;;19.08;10.65;;;;;;;;;;5055575;28;20114;-82
2022/10/13 08:19:25;;;;;;;20.55;11.25;;;;;;;;;;5038597;28;20110;-82
2022/10/13 08:21:51;;;;;;;16.05;10.05;;;;;;;;;;5038573;28;20092;-82
2022/10/13 08:24:18;;;;;;;19.52;10.13;;;;;;;;;;5055569;28;20146;-82
2022/10/13 08:26:45;;;;;;;19.98;10.88;;;;;;;;;;5055936;28;20464;-82
2022/10/13 08:29:12;;;;;;;19.08;10.18;;;;;;;;;;5055597;28;20031;-81
2022/10/13 08:31:38;;;;;;;20.88;10.73;;;;;;;;;;5056148;28;20079;-81
2022/10/13 08:34:04;;;;;;;20.10;11.13;;;;;;;;;;5055960;28;20244;-84
2022/10/13 08:36:30;;;;;;;18.65;10.85;;;;;;;;;;5053094;28;20108;-81
2022/10/13 08:38:56;;;;;;;22.52;11.23;;;;;;;;;;5056005;28;20069;-82
2022/10/13 08:41:24;;;;;;;23.33;12.45;;;;;;;;;;5048285;28;20032;-83
2022/10/13 08:43:52;;;;;;;26.27;12.82;;;;;;;;;;5057500;28;20029;-81
2022/10/13 08:46:30;;;;;;;20.23;11.02;;;;;;;;;;5037732;28;20387;-81
2022/10/13 08:48:56;;;;;;;20.65;11.63;;;;;;;;;;5037905;28;20036;-84
2022/10/13 08:51:22;;;;;;;24.35;12.75;;;;;;;;;;5055875;28;20021;-82
2022/10/13 08:53:49;;;;;;;24.27;12.38;;;;;;;;;;5038254;28;20024;-83
2022/10/13 08:56:20;;;;;;;22.70;12.07;;;;;;;;;;5053465;28;20032;-82
2022/10/13 08:58:47;;;;;;;23.63;12.30;;;;;;;;;;5037857;28;20029;-82
2022/10/13 09:01:15;;;;;;;22.90;13.30;;;;;;;;;;5054997;28;20025;-82
2022/10/13 09:03:47;;;;;;;22.23;12.95;;;;;;;;;;5040489;28;20112;-82
2022/10/13 09:06:14;;;;;;;24.13;13.63;;;;;;;;;;5056001;28;20029;-81
2022/10/13 09:08:52;;;;;;;21.40;12.15;;;;;;;;;;5054933;28;20400;-83
2022/10/13 09:11:18;;;;;;;24.05;12.75;;;;;;;;;;5056210;28;20017;-82
2022/10/13 09:13:44;;;;;;;24.83;13.98;;;;;;;;;;5037854;28;20434;-83
2022/10/13 09:16:10;;;;;;;24.70;14.52;;;;;;;;;;5056892;28;20025;-82
2022/10/13 09:18:37;;;;;;;23.67;14.05;;;;;;;;;;5055371;28;20041;-82
2022/10/13 09:21:20;;;;;;;25.17;14.23;;;;;;;;;;5056283;28;20084;-81
2022/10/13 09:23:48;;;;;;;27.05;14.65;;;;;;;;;;5055403;28;20036;-81
2022/10/13 09:26:21;;;;;;;24.88;13.85;;;;;;;;;;5055320;28;20025;-83
2022/10/13 09:28:48;;;;;;;28.88;14.38;;;;;;;;;;5054905;28;20360;-81
2022/10/13 09:31:29;;;;;;;30.13;13.85;;;;;;;;;;5037598;28;20498;-82
2022/10/13 09:33:59;;;;;;;29.88;13.75;;;;;;;;;;5038183;28;20037;-81
2022/10/13 09:36:25;;;;;;;24.80;12.13;;;;;;;;;;5055127;28;20029;-81
2022/10/13 09:39:24;;;;;;;29.52;14.00;;;;;;;;;;5054951;28;20049;-82
2022/10/13 09:41:50;;;;;;;27.65;13.35;;;;;;;;;;4993417;28;20107;-83
2022/10/13 09:44:17;;;;;;;27.45;14.30;;;;;;;;;;4992607;28;20092;-82
2022/10/13 09:46:49;;;;;;;30.50;14.07;;;;;;;;;;4993172;28;20393;-83
2022/10/13 09:49:38;;;;;;;28.48;15.18;;;;;;;;;;4998448;28;20027;-82
2022/10/13 09:52:15;;;;;;;26.33;13.55;;;;;;;;;;4997133;28;20035;-83
2022/10/13 09:54:41;;;;;;;28.42;15.15;;;;;;;;;;4996475;28;20101;-82
2022/10/13 09:57:11;;;;;;;29.27;14.98;;;;;;;;;;4994194;28;20030;-81
2022/10/13 09:59:45;;;;;;;29.90;15.85;;;;;;;;;;4997099;28;20034;-82
2022/10/13 10:02:20;;;;;;;32.75;14.88;;;;;;;;;;4991211;28;20038;-83
2022/10/13 10:04:46;;;;;;;28.88;16.50;;;;;;;;;;4995366;28;20050;-82
2022/10/13 10:07:19;;;;;;;30.13;15.63;;;;;;;;;;4993114;28;20034;-83
2022/10/13 10:09:47;;;;;;;33.45;15.43;;;;;;;;;;4994425;28;20055;-84
2022/10/13 10:12:16;;;;;;;28.00;15.40;;;;;;;;;;4994817;28;20038;-83
2022/10/13 10:14:42;;;;;;;33.30;15.27;;;;;;;;;;4992563;28;20030;-82
2022/10/13 10:17:11;;;;;;;30.08;15.15;;;;;;;;;;5013038;28;20120;-82
2022/10/13 10:19:56;;;;;;;28.55;15.50;;;;;;;;;;5056716;28;20036;-83
2022/10/13 10:22:31;;;;;;;27.52;15.77;;;;;;;;;;5057317;28;20025;-85
2022/10/13 10:25:03;;;;;;;33.28;15.82;;;;;;;;;;5056141;28;20498;-84
2022/10/13 10:27:43;;;;;;;30.42;15.75;;;;;;;;;;5037632;28;20025;-84
2022/10/13 10:30:15;;;;;;;27.58;15.38;;;;;;;;;;5055954;28;20311;-84
2022/10/13 10:33:02;;;;;;;31.02;15.48;;;;;;;;;;5056742;28;20563;-84
2022/10/13 10:35:38;;;;;;;36.15;16.02;;;;;;;;;;5038803;28;20082;-84
2022/10/13 10:38:19;;;;;;;31.92;15.95;;;;;;;;;;5040701;28;20025;-84
2022/10/13 10:40:45;;;;;;;33.50;17.23;;;;;;;;;;5059506;28;20049;-83
2022/10/13 10:43:22;;;;;;;33.80;16.27;;;;;;;;;;5059826;28;20032;-83
2022/10/13 10:45:48;;;;;;;33.92;15.65;;;;;;;;;;5057464;28;20032;-83
2022/10/13 10:48:35;;;;;;;35.15;16.27;;;;;;;;;;5058676;28;20032;-80
2022/10/13 10:51:02;;;;;;;30.35;16.33;;;;;;;;;;5041086;28;20047;-82
2022/10/13 10:53:28;;;;;;;32.55;17.25;;;;;;;;;;5060451;28;20021;-82
2022/10/13 10:56:03;;;;;;;32.33;17.05;;;;;;;;;;5061043;28;20100;-83
2022/10/13 10:58:35;;;;;;;33.72;15.85;;;;;;;;;;5059975;28;20025;-83
2022/10/13 11:01:13;;;;;;;35.00;15.93;;;;;;;;;;5040545;28;20025;-82
2022/10/13 11:03:54;;;;;;;32.53;17.77;;;;;;;;;;5040940;28;20249;-83
2022/10/13 11:06:36;;;;;;;34.05;17.33;;;;;;;;;;5062908;28;20036;-83
2022/10/13 11:09:04;;;;;;;31.52;16.48;;;;;;;;;;5061087;28;20074;-84
2022/10/13 11:11:31;;;;;;;26.17;14.75;;;;;;;;;;5061907;28;20033;-83
2022/10/13 11:14:07;;;;;;;27.65;14.68;;;;;;;;;;5058521;28;20043;-83
2022/10/13 11:16:34;;;;;;;29.63;15.35;;;;;;;;;;5044241;28;20064;-84
2022/10/13 11:19:20;;;;;;;26.27;14.70;;;;;;;;;;5060388;28;20551;-82
2022/10/13 11:21:55;;;;;;;26.83;15.05;;;;;;;;;;5060536;28;20442;-83
2022/10/13 11:24:33;;;;;;;25.73;14.13;;;;;;;;;;5042191;28;20017;-84
2022/10/13 11:27:09;;;;;;;27.63;14.20;;;;;;;;;;5059092;28;20029;-84
2022/10/13 11:29:51;;;;;;;30.88;15.52;;;;;;;;;;5041021;28;20356;-82
2022/10/13 11:32:26;;;;;;;27.33;15.13;;;;;;;;;;5058778;28;20021;-83
2022/10/13 11:34:58;;;;;;;28.17;16.20;;;;;;;;;;5041602;28;20021;-83
2022/10/13 11:37:28;;;;;;;24.30;13.57;;;;;;;;;;5058795;28;20039;-83
2022/10/13 11:40:00;;;;;;;26.83;14.55;;;;;;;;;;5060994;28;20180;-83
2022/10/13 11:42:46;;;;;;;24.42;13.38;;;;;;;;;;5058643;28;20029;-84
2022/10/13 11:45:24;;;;;;;27.13;13.70;;;;;;;;;;5060047;28;20028;-83
2022/10/13 11:47:53;;;;;;;29.23;14.02;;;;;;;;;;5059015;28;20497;-82
2022/10/13 11:50:25;;;;;;;25.77;14.73;;;;;;;;;;5039838;28;20021;-82
2022/10/13 11:52:54;;;;;;;23.55;13.57;;;;;;;;;;5059637;28;20287;-83
2022/10/13 11:55:31;;;;;;;24.25;14.25;;;;;;;;;;5041664;28;20025;-84
2022/10/13 11:58:14;;;;;;;26.73;15.25;;;;;;;;;;5060652;28;20025;-83
2022/10/13 12:00:40;;;;;;;;;;;;;;;;;;5041462;28;20064;-83
2022/10/13 12:03:19;;;;;;;27.77;15.63;;;;;;;;;;5058834;28;19931;-83
2022/10/13 12:05:47;;;;;;;27.95;15.90;;;;;;;;;;5059567;28;20021;-83
2022/10/13 12:08:13;;;;;;;31.02;14.65;;;;;;;;;;5047687;28;20407;-83
2022/10/13 12:10:39;;;;;;;28.60;15.55;;;;;;;;;;5058536;28;20023;-85
2022/10/13 12:13:07;;;;;;;27.67;13.88;;;;;;;;;;5039943;28;20033;-85
2022/10/13 12:15:39;;;;;;;23.52;13.23;;;;;;;;;;5042136;28;20048;-83
2022/10/13 12:18:26;;;;;;;27.05;14.63;;;;;;;;;;5060357;28;20021;-83
2022/10/13 12:20:54;;;;;;;32.60;16.77;;;;;;;;;;5061490;28;20023;-83
2022/10/13 12:23:20;;;;;;;27.85;15.80;;;;;;;;;;5044754;28;20021;-83
2022/10/13 12:25:47;;;;;;;30.35;15.27;;;;;;;;;;5058500;28;20514;-85
2022/10/13 12:28:19;;;;;;;25.73;16.75;;;;;;;;;;5041210;28;20479;-84
2022/10/13 12:30:56;;;;;;;27.30;16.10;;;;;;;;;;5058291;28;20025;-82
2022/10/13 12:33:37;;;;;;;29.52;18.08;;;;;;;;;;5058816;28;20021;-83
2022/10/13 12:36:12;;;;;;;31.83;18.00;;;;;;;;;;5045283;28;20024;-83
2022/10/13 12:38:41;;;;;;;29.98;18.08;;;;;;;;;;5058070;28;20053;-83
2022/10/13 12:41:10;;;;;;;30.60;17.58;;;;;;;;;;5055972;28;20024;-83
2022/10/13 12:43:37;;;;;;;31.27;18.05;;;;;;;;;;5038935;28;20112;-82
2022/10/13 12:46:03;;;;;;;31.65;19.10;;;;;;;;;;5056160;28;20025;-83
2022/10/13 12:48:30;;;;;;;26.15;17.15;;;;;;;;;;5056589;28;20383;-82
2022/10/13 12:51:06;;;;;;;28.10;17.55;;;;;;;;;;5056806;28;20029;-82
2022/10/13 12:53:32;;;;;;;33.42;19.15;;;;;;;;;;5056117;28;20613;-81
2022/10/13 12:56:00;;;;;;;32.22;18.52;;;;;;;;;;5048038;28;20032;-82
2022/10/13 12:58:30;;;;;;;33.42;17.92;;;;;;;;;;5056742;28;20372;-85
2022/10/13 13:00:56;;;;;;;30.02;17.52;;;;;;;;;;5043766;28;20608;-85
2022/10/13 13:03:25;;;;;;;31.10;17.77;;;;;;;;;;5059563;28;20029;-84
2022/10/13 13:06:06;;;;;;;25.92;16.02;;;;;;;;;;5059362;28;20052;-84
2022/10/13 13:08:32;;;;;;;24.73;15.93;;;;;;;;;;5060390;28;20021;-85
2022/10/13 13:10:59;;;;;;;30.90;17.05;;;;;;;;;;5060576;28;20017;-84
2022/10/13 13:13:25;;;;;;;29.98;17.13;;;;;;;;;;5058623;28;20132;-85
2022/10/13 13:15:52;;;;;;;30.98;18.23;;;;;;;;;;5056653;28;20061;-85
2022/10/13 13:18:38;;;;;;;29.30;16.92;;;;;;;;;;5060460;28;20158;-85
2022/10/13 13:21:22;;;;;;;26.92;15.68;;;;;;;;;;5061151;28;20016;-84
2022/10/13 13:23:48;;;;;;;28.90;14.98;;;;;;;;;;5060532;28;20025;-83
2022/10/13 13:26:14;;;;;;;30.33;17.00;;;;;;;;;;5059966;28;20032;-84
2022/10/13 13:28:45;;;;;;;26.38;16.15;;;;;;;;;;5060345;28;20036;-83
2022/10/13 13:31:11;;;;;;;26.92;16.70;;;;;;;;;;5061744;28;20098;-83
2022/10/13 13:33:38;;;;;;;28.88;17.67;;;;;;;;;;5060447;28;20025;-83
2022/10/13 13:36:04;;;;;;;32.97;17.75;;;;;;;;;;5059403;28;20025;-83
2022/10/13 13:38:31;;;;;;;29.67;18.90;;;;;;;;;;5042123;28;20039;-84
2022/10/13 13:40:57;;;;;;;27.88;18.30;;;;;;;;;;5058175;28;20021;-83
2022/10/13 13:43:23;;;;;;;27.42;15.68;;;;;;;;;;5059199;28;20025;-83
2022/10/13 13:45:49;;;;;;;26.55;15.13;;;;;;;;;;5058900;28;20467;-84
2022/10/13 13:48:15;;;;;;;25.95;16.55;;;;;;;;;;5056855;28;20029;-84
2022/10/13 13:50:41;;;;;;;27.33;16.63;;;;;;;;;;5059349;28;20510;-84
2022/10/13 13:53:07;;;;;;;26.55;16.10;;;;;;;;;;5059403;28;20029;-83
2022/10/13 13:55:34;;;;;;;31.52;17.17;;;;;;;;;;5059697;28;20052;-83
2022/10/13 13:58:00;;;;;;;25.25;15.13;;;;;;;;;;5057710;28;20025;-83
2022/10/13 14:00:26;;;;;;;26.77;17.02;;;;;;;;;;5057043;28;20029;-83
2022/10/13 14:02:52;;;;;;;29.88;17.60;;;;;;;;;;5057559;28;20093;-84
2022/10/13 14:05:19;;;;;;;24.42;15.52;;;;;;;;;;5058006;28;20029;-84
2022/10/13 14:07:45;;;;;;;30.23;17.95;;;;;;;;;;5057618;28;20025;-83
2022/10/13 14:10:11;;;;;;;27.92;16.83;;;;;;;;;;5057601;28;20032;-83
2022/10/13 14:12:37;;;;;;;29.13;18.05;;;;;;;;;;5057819;28;20391;-84
2022/10/13 14:15:04;;;;;;;27.35;16.83;;;;;;;;;;5057840;28;20108;-84
2022/10/13 14:17:30;;;;;;;30.25;17.50;;;;;;;;;;5037208;28;20037;-84
2022/10/13 14:19:56;;;;;;;27.98;16.02;;;;;;;;;;5057711;28;20033;-84
2022/10/13 14:22:22;;;;;;;29.40;16.45;;;;;;;;;;5041550;28;20139;-84
2022/10/13 14:24:48;;;;;;;30.10;15.65;;;;;;;;;;5056608;28;20510;-84
2022/10/13 14:27:14;;;;;;;28.33;16.40;;;;;;;;;;5056511;28;20056;-84
2022/10/13 14:29:40;;;;;;;23.92;15.45;;;;;;;;;;5057431;28;20025;-83
2022/10/13 14:32:06;;;;;;;23.63;15.35;;;;;;;;;;5056921;28;20545;-83
2022/10/13 14:34:32;;;;;;;25.92;15.45;;;;;;;;;;5038201;28;20111;-84